TimeEST,TemperatureF,Dew PointF,Humidity,Sea Level PressureIn,VisibilityMPH,Wind Direction,Wind SpeedMPH,Gust SpeedMPH,PrecipitationIn,Events,Conditions,WindDirDegrees,DateUTC
12:56 AM,26.1,15.1,63,30.37,10.0,North,6.9,-,N/A,,Overcast,350,2012-12-06 05:56:00
1:56 AM,26.1,15.1,63,30.38,10.0,North,8.1,-,N/A,,Overcast,360,2012-12-06 06:56:00
2:56 AM,26.1,16.2,66,30.39,10.0,North,8.1,-,N/A,,Overcast,360,2012-12-06 07:56:00
3:04 AM,26.6,15.8,64,30.34,10.0,North,6.9,-,N/A,,Overcast,360,2012-12-06 08:04:00
3:56 AM,26.1,16.2,66,30.40,10.0,NNW,9.2,-,N/A,,Overcast,340,2012-12-06 08:56:00
4:56 AM,25.2,16.2,69,30.40,10.0,North,6.9,-,N/A,,Overcast,350,2012-12-06 09:56:00
5:56 AM,25.2,16.2,69,30.41,10.0,NNE,5.8,-,N/A,,Overcast,20,2012-12-06 10:56:00
6:17 AM,24.8,15.8,69,30.36,10.0,NE,3.5,-,N/A,,Overcast,40,2012-12-06 11:17:00
6:56 AM,23.0,16.2,75,30.41,10.0,ENE,3.5,-,N/A,,Partly Cloudy,60,2012-12-06 11:56:00
7:56 AM,21.0,17.1,85,30.42,10.0,ENE,3.5,-,N/A,,Clear,70,2012-12-06 12:56:00
8:56 AM,25.2,18.1,75,30.40,10.0,Calm,Calm,-,N/A,,Clear,0,2012-12-06 13:56:00
9:56 AM,28.0,18.1,66,30.40,10.0,East,5.8,-,N/A,,Clear,100,2012-12-06 14:56:00
10:56 AM,29.1,18.1,64,30.37,10.0,East,3.5,-,N/A,,Clear,90,2012-12-06 15:56:00
11:56 AM,32.0,19.0,59,30.33,10.0,Calm,Calm,-,N/A,,Clear,0,2012-12-06 16:56:00
12:56 PM,34.0,20.1,57,30.30,10.0,Variable,4.6,-,N/A,,Clear,0,2012-12-06 17:56:00
1:56 PM,36.0,19.0,50,30.27,10.0,SSE,6.9,-,N/A,,Clear,160,2012-12-06 18:56:00
2:56 PM,36.9,20.1,51,30.25,10.0,SSE,8.1,-,N/A,,Clear,160,2012-12-06 19:56:00
3:56 PM,34.0,20.1,57,30.24,10.0,SE,8.1,-,N/A,,Clear,140,2012-12-06 20:56:00
4:56 PM,32.0,19.0,59,30.24,10.0,SSE,5.8,-,N/A,,Clear,150,2012-12-06 21:56:00
5:56 PM,32.9,18.1,55,30.22,10.0,SE,6.9,-,N/A,,Clear,130,2012-12-06 22:56:00
6:56 PM,32.9,19.0,57,30.22,10.0,SE,12.7,-,N/A,,Clear,140,2012-12-06 23:56:00
7:56 PM,32.0,18.1,57,30.20,10.0,SSE,11.5,-,N/A,,Clear,160,2012-12-07 00:56:00
8:56 PM,32.0,17.1,54,30.19,10.0,South,8.1,-,N/A,,Clear,170,2012-12-07 01:56:00
9:56 PM,32.0,17.1,54,30.18,10.0,SSE,10.4,-,N/A,,Clear,160,2012-12-07 02:56:00
10:56 PM,32.9,16.2,50,30.16,10.0,South,13.8,20.7,N/A,,Clear,170,2012-12-07 03:56:00
11:56 PM,32.0,17.1,54,30.15,10.0,SSE,12.7,-,N/A,,Clear,160,2012-12-07 04:56:00